<?xml version="1.0" encoding="UTF-8" standalone="no" ?>
<gpx xmlns="http://www.topografix.com/GPX/1/1" xmlns:xsi="http://www.w3.org/2001/XMLSchema-instance" xsi:schemaLocation="http://www.topografix.com/GPX/1/1 http://www.topografix.com/GPX/1/1/gpx.xsd" version="1.1" creator="VisuGPX - https://www.visugpx.com">
  <metadata>
    <name>boucles beaumont</name>
    <desc><![CDATA[boucles beaumont du périgord]]></desc>
  </metadata>
  <trk>
    <name><![CDATA[BBmt07]]></name>
    <trkseg>
      <trkpt lat="44.79843" lon="0.7352">
        <ele>81</ele>
        <time>2008-12-08T13:34:46Z</time>
      </trkpt>
      <trkpt lat="44.79865" lon="0.73513">
        <ele>83</ele>
        <time>2008-12-08T13:36:42Z</time>
      </trkpt>
      <trkpt lat="44.79885" lon="0.73513">
        <ele>87</ele>
        <time>2008-12-08T13:36:50Z</time>
      </trkpt>
      <trkpt lat="44.79908" lon="0.73518">
        <ele>93</ele>
        <time>2008-12-08T13:36:56Z</time>
      </trkpt>
      <trkpt lat="44.79928" lon="0.7352">
        <ele>96</ele>
        <time>2008-12-08T13:37:01Z</time>
      </trkpt>
      <trkpt lat="44.79948" lon="0.7352">
        <ele>106</ele>
        <time>2008-12-08T13:37:08Z</time>
      </trkpt>
      <trkpt lat="44.79968" lon="0.73518">
        <ele>117</ele>
        <time>2008-12-08T13:37:14Z</time>
      </trkpt>
      <trkpt lat="44.79988" lon="0.73513">
        <ele>127</ele>
        <time>2008-12-08T13:37:20Z</time>
      </trkpt>
      <trkpt lat="44.80005" lon="0.73505">
        <ele>135</ele>
        <time>2008-12-08T13:37:26Z</time>
      </trkpt>
      <trkpt lat="44.80025" lon="0.735">
        <ele>139</ele>
        <time>2008-12-08T13:37:32Z</time>
      </trkpt>
      <trkpt lat="44.80043" lon="0.7349">
        <ele>145</ele>
        <time>2008-12-08T13:37:37Z</time>
      </trkpt>
      <trkpt lat="44.80063" lon="0.73485">
        <ele>156</ele>
        <time>2008-12-08T13:37:42Z</time>
      </trkpt>
      <trkpt lat="44.8008" lon="0.73475">
        <ele>161</ele>
        <time>2008-12-08T13:37:47Z</time>
      </trkpt>
      <trkpt lat="44.80098" lon="0.73465">
        <ele>163</ele>
        <time>2008-12-08T13:37:52Z</time>
      </trkpt>
      <trkpt lat="44.80115" lon="0.7345">
        <ele>163</ele>
        <time>2008-12-08T13:37:57Z</time>
      </trkpt>
      <trkpt lat="44.80128" lon="0.73425">
        <ele>133</ele>
        <time>2008-12-08T13:38:00Z</time>
      </trkpt>
      <trkpt lat="44.8014" lon="0.73405">
        <ele>128</ele>
        <time>2008-12-08T13:38:04Z</time>
      </trkpt>
      <trkpt lat="44.80155" lon="0.73385">
        <ele>125</ele>
        <time>2008-12-08T13:38:08Z</time>
      </trkpt>
      <trkpt lat="44.80165" lon="0.7336">
        <ele>123</ele>
        <time>2008-12-08T13:38:12Z</time>
      </trkpt>
      <trkpt lat="44.80178" lon="0.73335">
        <ele>122</ele>
        <time>2008-12-08T13:38:16Z</time>
      </trkpt>
      <trkpt lat="44.8019" lon="0.73308">
        <ele>126</ele>
        <time>2008-12-08T13:38:20Z</time>
      </trkpt>
      <trkpt lat="44.80198" lon="0.73283">
        <ele>126</ele>
        <time>2008-12-08T13:38:24Z</time>
      </trkpt>
      <trkpt lat="44.8021" lon="0.7326">
        <ele>128</ele>
        <time>2008-12-08T13:38:28Z</time>
      </trkpt>
      <trkpt lat="44.8022" lon="0.73235">
        <ele>122</ele>
        <time>2008-12-08T13:38:32Z</time>
      </trkpt>
      <trkpt lat="44.80233" lon="0.73215">
        <ele>119</ele>
        <time>2008-12-08T13:38:38Z</time>
      </trkpt>
      <trkpt lat="44.80248" lon="0.73195">
        <ele>106</ele>
        <time>2008-12-08T13:38:51Z</time>
      </trkpt>
      <trkpt lat="44.80263" lon="0.73175">
        <ele>109</ele>
        <time>2008-12-08T13:38:56Z</time>
      </trkpt>
      <trkpt lat="44.80283" lon="0.7316">
        <ele>109</ele>
        <time>2008-12-08T13:39:01Z</time>
      </trkpt>
      <trkpt lat="44.803" lon="0.73138">
        <ele>115</ele>
        <time>2008-12-08T13:39:05Z</time>
      </trkpt>
      <trkpt lat="44.80315" lon="0.73115">
        <ele>120</ele>
        <time>2008-12-08T13:39:09Z</time>
      </trkpt>
      <trkpt lat="44.8033" lon="0.73095">
        <ele>121</ele>
        <time>2008-12-08T13:39:15Z</time>
      </trkpt>
      <trkpt lat="44.80333" lon="0.73068">
        <ele>64</ele>
        <time>2008-12-08T13:40:25Z</time>
      </trkpt>
      <trkpt lat="44.8035" lon="0.73058">
        <ele>70</ele>
        <time>2008-12-08T13:40:31Z</time>
      </trkpt>
      <trkpt lat="44.80368" lon="0.73045">
        <ele>91</ele>
        <time>2008-12-08T13:40:37Z</time>
      </trkpt>
      <trkpt lat="44.80385" lon="0.73033">
        <ele>104</ele>
        <time>2008-12-08T13:40:43Z</time>
      </trkpt>
      <trkpt lat="44.804" lon="0.73018">
        <ele>105</ele>
        <time>2008-12-08T13:40:49Z</time>
      </trkpt>
      <trkpt lat="44.80408" lon="0.7299">
        <ele>90</ele>
        <time>2008-12-08T13:41:01Z</time>
      </trkpt>
      <trkpt lat="44.80418" lon="0.72965">
        <ele>90</ele>
        <time>2008-12-08T13:41:04Z</time>
      </trkpt>
      <trkpt lat="44.8043" lon="0.72935">
        <ele>87</ele>
        <time>2008-12-08T13:41:07Z</time>
      </trkpt>
      <trkpt lat="44.8044" lon="0.72913">
        <ele>86</ele>
        <time>2008-12-08T13:41:09Z</time>
      </trkpt>
      <trkpt lat="44.80453" lon="0.72878">
        <ele>77</ele>
        <time>2008-12-08T13:41:12Z</time>
      </trkpt>
      <trkpt lat="44.8046" lon="0.72853">
        <ele>69</ele>
        <time>2008-12-08T13:41:14Z</time>
      </trkpt>
      <trkpt lat="44.80468" lon="0.72823">
        <ele>70</ele>
        <time>2008-12-08T13:41:17Z</time>
      </trkpt>
      <trkpt lat="44.80475" lon="0.72798">
        <ele>76</ele>
        <time>2008-12-08T13:41:19Z</time>
      </trkpt>
      <trkpt lat="44.80478" lon="0.72758">
        <ele>77</ele>
        <time>2008-12-08T13:41:22Z</time>
      </trkpt>
      <trkpt lat="44.80473" lon="0.72723">
        <ele>75</ele>
        <time>2008-12-08T13:41:25Z</time>
      </trkpt>
      <trkpt lat="44.8046" lon="0.72698">
        <ele>71</ele>
        <time>2008-12-08T13:41:28Z</time>
      </trkpt>
      <trkpt lat="44.80445" lon="0.7268">
        <ele>68</ele>
        <time>2008-12-08T13:41:32Z</time>
      </trkpt>
      <trkpt lat="44.8043" lon="0.72665">
        <ele>66</ele>
        <time>2008-12-08T13:41:36Z</time>
      </trkpt>
    </trkseg>
  </trk>
</gpx>